Terminal Aerodrome Forecast
Issued by NWS

Home | Current Version | Previous Version | Text Only | Print | Product List | Glossary On
Versions: 1 2 3 4 5 6 7 8 9 10 11 12 13 14
000
FTUS41 KBOX 272320
TAFFMH
TAF
KFMH 272320Z 2800/2824 VRB03KT P6SM FEW010 SCT100
     FM280100 VRB03KT 6SM BR OVC025
     FM280600 00000KT 2SM BR OVC003
     FM280800 05005KT 2SM -DZ BR OVC003
     FM281300 06010G21KT 2SM -DZ BR VCSH OVC008
     FM281600 05012G24KT 5SM -DZ BR OVC008=

USA.gov is the U.S. government's official web portal to all federal, state and local government web resources and services.